Time;durP1;ratioP1;P1;durP2;ratioP2;P2;SDS_P1;SDS_P2;PMS_P1;PMS_P2;Temp;Humidity;BMP_temperature;BMP_pressure;BME280_temperature;BME280_humidity;BME280_pressure;Samples;Min_cycle;Max_cycle;Signal;HPM_P1;HPM_P2
2023/03/21 00:01:57;;;;;;;15.80;7.03;;;8.50;99.90;;;;;;5010782;28;20568;-72
2023/03/21 00:04:25;;;;;;;11.47;6.43;;;8.50;99.90;;;;;;5011389;28;20482;-73
2023/03/21 00:06:52;;;;;;;11.30;6.50;;;8.50;99.90;;;;;;5011660;28;20466;-72
2023/03/21 00:09:19;;;;;;;8.30;5.63;;;8.50;99.90;;;;;;5011173;28;20998;-73
2023/03/21 00:11:47;;;;;;;10.20;5.97;;;8.50;99.90;;;;;;5011013;28;20487;-72
2023/03/21 00:14:18;;;;;;;11.93;6.10;;;8.50;99.90;;;;;;5011031;28;20482;-73
2023/03/21 00:16:49;;;;;;;11.17;6.13;;;8.70;99.90;;;;;;5010915;28;20459;-73
2023/03/21 00:19:18;;;;;;;10.97;6.17;;;8.50;99.90;;;;;;5013203;28;20478;-72
2023/03/21 00:21:45;;;;;;;11.70;5.87;;;8.50;99.90;;;;;;5016343;28;20493;-73
2023/03/21 00:24:12;;;;;;;9.60;5.47;;;8.60;99.90;;;;;;5014432;28;21019;-72
2023/03/21 00:26:39;;;;;;;10.97;5.90;;;8.50;99.90;;;;;;5014770;28;20467;-73
2023/03/21 00:29:05;;;;;;;9.60;5.50;;;8.50;99.90;;;;;;5014452;28;20537;-73
2023/03/21 00:31:32;;;;;;;11.97;5.40;;;8.60;99.90;;;;;;5014607;28;20533;-72
2023/03/21 00:33:59;;;;;;;10.20;4.43;;;8.50;99.90;;;;;;5014413;28;20820;-72
2023/03/21 00:36:27;;;;;;;19.73;5.63;;;8.50;99.90;;;;;;5014453;28;20469;-72
2023/03/21 00:38:54;;;;;;;11.63;5.57;;;8.40;99.90;;;;;;5014899;28;20459;-72
2023/03/21 00:41:21;;;;;;;10.60;5.50;;;8.50;99.90;;;;;;5014380;28;20490;-72
2023/03/21 00:43:48;;;;;;;9.50;5.27;;;8.50;99.90;;;;;;5014034;28;20454;-73
2023/03/21 00:46:15;;;;;;;7.60;4.90;;;8.50;99.90;;;;;;5014603;28;20509;-73
2023/03/21 00:48:41;;;;;;;10.60;5.30;;;8.50;99.90;;;;;;5014506;28;21018;-72
2023/03/21 00:51:14;;;;;;;10.87;5.50;;;8.50;99.90;;;;;;5014049;28;20451;-73
2023/03/21 00:53:42;;;;;;;10.80;5.53;;;8.50;99.90;;;;;;5014631;28;20459;-72
2023/03/21 00:56:10;;;;;;;9.30;5.40;;;8.50;99.90;;;;;;5014211;28;20471;-73
2023/03/21 00:58:36;;;;;;;11.47;5.50;;;8.50;99.90;;;;;;5014387;28;20538;-72
2023/03/21 01:01:05;;;;;;;9.60;5.60;;;8.50;99.90;;;;;;5013643;28;20482;-72
2023/03/21 01:03:41;;;;;;;7.50;5.43;;;8.50;99.90;;;;;;5009488;28;20467;-72
2023/03/21 01:06:12;;;;;;;10.00;5.60;;;8.50;99.90;;;;;;5013427;28;20459;-73
2023/03/21 01:08:40;;;;;;;10.93;5.50;;;8.50;99.90;;;;;;5014139;28;20494;-72
2023/03/21 01:11:10;;;;;;;14.20;6.10;;;8.50;99.90;;;;;;5013569;28;20509;-72
2023/03/21 01:13:37;;;;;;;8.63;5.87;;;8.50;99.90;;;;;;5013805;28;20814;-73
2023/03/21 01:16:06;;;;;;;10.50;5.57;;;8.50;99.90;;;;;;5013791;28;20489;-72
2023/03/21 01:18:34;;;;;;;9.90;5.73;;;8.50;99.90;;;;;;5013861;28;20542;-73
2023/03/21 01:21:01;;;;;;;8.10;5.47;;;8.50;99.90;;;;;;5015820;28;20573;-73
2023/03/21 01:23:29;;;;;;;12.40;5.80;;;8.50;99.90;;;;;;5013584;28;20529;-72
2023/03/21 01:25:57;;;;;;;9.57;5.47;;;8.50;99.90;;;;;;5013218;28;20479;-72
2023/03/21 01:28:28;;;;;;;8.80;5.53;;;8.50;99.90;;;;;;5013526;28;20995;-72
2023/03/21 01:30:55;;;;;;;8.33;5.27;;;8.40;99.90;;;;;;5012947;28;20489;-72
2023/03/21 01:33:22;;;;;;;7.10;4.50;;;8.40;99.90;;;;;;5012938;28;20972;-72
2023/03/21 01:35:49;;;;;;;9.10;5.70;;;8.40;99.90;;;;;;5013440;28;20471;-72
2023/03/21 01:38:15;;;;;;;11.27;4.70;;;8.40;99.90;;;;;;5013901;28;20581;-72
2023/03/21 01:40:44;;;;;;;7.50;5.27;;;8.40;99.90;;;;;;5013107;28;20533;-72
2023/03/21 01:43:21;;;;;;;21.10;6.10;;;8.40;99.90;;;;;;5012793;28;20947;-72
2023/03/21 01:46:21;;;;;;;11.13;5.57;;;8.40;99.90;;;;;;5013338;28;20474;-72
2023/03/21 01:48:53;;;;;;;7.73;4.87;;;8.40;99.90;;;;;;5013060;28;20459;-72
2023/03/21 01:51:21;;;;;;;7.67;4.80;;;8.40;99.90;;;;;;5013065;28;20516;-73
2023/03/21 01:53:48;;;;;;;8.83;4.90;;;8.40;99.90;;;;;;5021002;28;20505;-72
2023/03/21 01:56:19;;;;;;;10.97;5.40;;;8.40;99.90;;;;;;5013204;28;20459;-72
2023/03/21 01:58:47;;;;;;;16.47;5.83;;;8.40;99.90;;;;;;5013007;28;20466;-72
2023/03/21 02:01:15;;;;;;;10.10;5.30;;;8.40;99.90;;;;;;5004790;28;20517;-72
2023/03/21 02:03:49;;;;;;;10.40;5.57;;;8.40;99.90;;;;;;5013173;28;20493;-73
2023/03/21 02:06:21;;;;;;;9.50;4.57;;;8.40;99.90;;;;;;5012983;28;20964;-72
2023/03/21 02:08:48;;;;;;;9.23;5.97;;;8.40;99.90;;;;;;5012792;28;21017;-72
2023/03/21 02:11:16;;;;;;;11.30;5.10;;;8.30;99.90;;;;;;5012769;28;20474;-72
2023/03/21 02:13:43;;;;;;;7.27;5.40;;;8.40;99.90;;;;;;5012582;28;20439;-72
2023/03/21 02:16:24;;;;;;;10.33;4.97;;;8.30;99.90;;;;;;5013031;28;20458;-73
2023/03/21 02:18:58;;;;;;;8.30;5.20;;;8.20;99.90;;;;;;5012226;28;20516;-73
2023/03/21 02:21:53;;;;;;;8.73;5.37;;;8.20;99.90;;;;;;5015501;28;20486;-72
2023/03/21 02:24:49;;;;;;;11.90;5.30;;;8.20;99.90;;;;;;5005574;28;20481;-73
2023/03/21 02:27:20;;;;;;;7.93;5.30;;;8.20;99.90;;;;;;5012600;28;20450;-72
2023/03/21 02:30:33;;;;;;;13.23;5.47;;;8.10;99.90;;;;;;5012460;28;20559;-73
2023/03/21 02:33:22;;;;;;;14.33;5.30;;;8.10;99.90;;;;;;5012564;28;20449;-72
2023/03/21 02:36:12;;;;;;;8.10;5.00;;;8.10;99.90;;;;;;5012528;28;20532;-72
2023/03/21 02:38:47;;;;;;;8.87;4.67;;;8.10;99.90;;;;;;5012223;28;20451;-73
2023/03/21 02:41:18;;;;;;;10.97;5.50;;;8.10;99.90;;;;;;5010119;28;21018;-73
2023/03/21 02:43:52;;;;;;;8.00;5.57;;;8.10;99.90;;;;;;5011868;28;20951;-72
2023/03/21 02:46:23;;;;;;;9.70;4.83;;;8.10;99.90;;;;;;5004527;28;20532;-72
2023/03/21 02:48:56;;;;;;;8.67;5.50;;;8.10;99.90;;;;;;5011748;28;21102;-72
2023/03/21 02:51:25;;;;;;;7.20;5.30;;;8.00;99.90;;;;;;5012334;28;20443;-72
2023/03/21 02:53:58;;;;;;;8.20;5.40;;;8.00;99.90;;;;;;5012016;28;20508;-71
2023/03/21 02:56:27;;;;;;;11.53;4.90;;;8.00;99.90;;;;;;5012282;28;20516;-73
2023/03/21 02:58:53;;;;;;;9.00;4.97;;;8.00;99.90;;;;;;5011553;28;20454;-73
2023/03/21 03:01:20;;;;;;;7.57;4.87;;;8.00;99.90;;;;;;5010515;28;20452;-73
2023/03/21 03:03:47;;;;;;;8.00;5.20;;;8.00;99.90;;;;;;5008398;28;20455;-73
2023/03/21 03:06:18;;;;;;;8.17;4.83;;;8.00;99.90;;;;;;5011533;28;20453;-73
2023/03/21 03:09:03;;;;;;;9.10;5.00;;;8.00;99.90;;;;;;5012126;28;20505;-71
2023/03/21 03:11:33;;;;;;;7.23;5.17;;;8.00;99.90;;;;;;5005288;28;20479;-72
2023/03/21 03:14:28;;;;;;;11.17;4.73;;;7.90;99.90;;;;;;5011199;28;21073;-72
2023/03/21 03:17:05;;;;;;;8.53;5.43;;;7.90;99.90;;;;;;5008136;28;20467;-72
2023/03/21 03:19:35;;;;;;;12.20;5.60;;;7.90;99.90;;;;;;5012280;28;20461;-72
2023/03/21 03:22:07;;;;;;;8.03;5.50;;;7.90;99.90;;;;;;5013255;28;21025;-73
2023/03/21 03:24:42;;;;;;;11.67;5.20;;;7.80;99.90;;;;;;5011753;28;20508;-73
2023/03/21 03:27:14;;;;;;;13.23;5.40;;;7.80;99.90;;;;;;5011844;28;20454;-73
2023/03/21 03:29:44;;;;;;;9.10;5.20;;;7.80;99.90;;;;;;5011324;28;20481;-73
2023/03/21 03:32:17;;;;;;;11.10;4.97;;;7.80;99.90;;;;;;5010630;28;20872;-72
2023/03/21 03:34:50;;;;;;;8.60;4.97;;;7.80;99.90;;;;;;5011573;28;20538;-73
2023/03/21 03:37:21;;;;;;;7.40;4.90;;;7.70;99.90;;;;;;5011775;28;20458;-73
2023/03/21 03:39:55;;;;;;;6.73;4.77;;;7.70;99.90;;;;;;5011597;28;20556;-73
2023/03/21 03:42:25;;;;;;;8.37;4.87;;;7.60;99.90;;;;;;5004572;28;20497;-73
2023/03/21 03:44:52;;;;;;;7.40;5.13;;;7.50;99.90;;;;;;5011247;28;20475;-73
2023/03/21 03:47:23;;;;;;;7.60;5.03;;;7.50;99.90;;;;;;5011106;28;20451;-73
2023/03/21 03:49:57;;;;;;;6.57;4.90;;;7.50;99.90;;;;;;5011508;28;20450;-73
2023/03/21 03:52:28;;;;;;;7.60;5.10;;;7.40;99.90;;;;;;5007786;28;20504;-73
2023/03/21 03:54:56;;;;;;;7.07;5.30;;;7.40;99.90;;;;;;5015203;28;20521;-73
2023/03/21 03:57:25;;;;;;;6.20;4.93;;;7.30;99.90;;;;;;5015680;28;20458;-73
2023/03/21 03:59:53;;;;;;;10.73;5.33;;;7.30;99.90;;;;;;5014691;28;20544;-73
2023/03/21 04:02:20;;;;;;;11.00;5.47;;;7.20;99.90;;;;;;5009137;28;20497;-73
2023/03/21 04:04:47;;;;;;;15.57;5.07;;;7.20;99.90;;;;;;5015245;28;20476;-73
2023/03/21 04:07:15;;;;;;;7.27;5.00;;;7.10;99.90;;;;;;5015104;28;20465;-73
2023/03/21 04:09:42;;;;;;;7.93;4.70;;;7.10;99.90;;;;;;5014808;28;20564;-73
2023/03/21 04:12:09;;;;;;;7.33;5.10;;;7.10;99.90;;;;;;5014784;28;20455;-73
2023/03/21 04:14:36;;;;;;;9.47;5.33;;;7.00;99.90;;;;;;5015053;28;20524;-73
2023/03/21 04:17:03;;;;;;;8.27;4.63;;;7.00;99.90;;;;;;5014792;28;20504;-72
2023/03/21 04:19:30;;;;;;;5.97;4.83;;;7.00;99.90;;;;;;5015427;28;20520;-73
2023/03/21 04:21:56;;;;;;;11.00;5.43;;;6.90;99.90;;;;;;5017409;28;20526;-72
2023/03/21 04:24:23;;;;;;;8.67;5.17;;;6.90;99.90;;;;;;5014705;28;20482;-73
2023/03/21 04:26:52;;;;;;;9.70;5.40;;;6.90;99.90;;;;;;5014949;28;20586;-73
2023/03/21 04:29:20;;;;;;;6.90;4.90;;;6.90;99.90;;;;;;5014015;28;21002;-72
2023/03/21 04:31:48;;;;;;;10.13;5.17;;;6.90;99.90;;;;;;5014861;28;20503;-73
2023/03/21 04:34:15;;;;;;;16.57;5.87;;;6.90;99.90;;;;;;5014397;28;20473;-73
2023/03/21 04:36:45;;;;;;;7.17;4.80;;;6.90;99.90;;;;;;5014706;28;21047;-73
2023/03/21 04:39:14;;;;;;;13.20;5.50;;;6.90;99.90;;;;;;5013998;28;20526;-73
2023/03/21 04:41:41;;;;;;;15.13;6.60;;;6.90;99.90;;;;;;5014714;28;20462;-73
2023/03/21 04:44:09;;;;;;;10.47;5.90;;;6.90;99.90;;;;;;5013777;28;20562;-72
2023/03/21 04:46:37;;;;;;;8.53;6.33;;;7.00;99.90;;;;;;5014408;28;20449;-72
2023/03/21 04:49:05;;;;;;;14.53;6.27;;;6.90;99.90;;;;;;5014535;28;20862;-72
2023/03/21 04:51:32;;;;;;;17.40;6.20;;;6.90;99.90;;;;;;5014033;28;20526;-72
2023/03/21 04:53:59;;;;;;;13.50;6.20;;;6.90;99.90;;;;;;5015296;28;20524;-72
2023/03/21 04:56:31;;;;;;;10.87;6.83;;;6.90;99.90;;;;;;5013997;28;20507;-72
2023/03/21 04:58:58;;;;;;;13.17;6.70;;;7.00;99.90;;;;;;5014285;28;20972;-72
2023/03/21 05:01:24;;;;;;;13.57;6.03;;;7.00;99.90;;;;;;5011954;28;20459;-72
2023/03/21 05:03:52;;;;;;;9.40;5.60;;;7.00;99.90;;;;;;5009882;28;20493;-72
2023/03/21 05:06:19;;;;;;;12.17;5.70;;;6.90;99.90;;;;;;5013189;28;20455;-73
2023/03/21 05:08:46;;;;;;;17.30;5.97;;;6.80;99.90;;;;;;5014197;28;21017;-72
2023/03/21 05:11:12;;;;;;;8.93;5.03;;;6.80;99.90;;;;;;5013698;28;20453;-72
2023/03/21 05:13:39;;;;;;;9.47;5.50;;;6.80;99.90;;;;;;5013949;28;20455;-72
2023/03/21 05:16:07;;;;;;;10.37;5.53;;;6.80;99.90;;;;;;5013638;28;20461;-72
2023/03/21 05:18:33;;;;;;;8.47;4.97;;;6.80;99.90;;;;;;5014028;28;21209;-72
2023/03/21 05:21:03;;;;;;;9.63;5.00;;;6.70;99.90;;;;;;5017582;28;20457;-72
2023/03/21 05:23:30;;;;;;;10.07;5.00;;;6.70;99.90;;;;;;5013853;28;20491;-72
2023/03/21 05:25:57;;;;;;;11.70;5.03;;;6.70;99.90;;;;;;5013778;28;20477;-72
2023/03/21 05:28:30;;;;;;;7.87;4.37;;;6.70;99.90;;;;;;5013661;28;20963;-72
2023/03/21 05:30:57;;;;;;;9.53;5.07;;;6.60;99.90;;;;;;5013507;28;20540;-73
2023/03/21 05:33:24;;;;;;;9.33;5.03;;;6.60;99.90;;;;;;5013443;28;20457;-74
2023/03/21 05:35:51;;;;;;;11.30;4.83;;;6.60;99.90;;;;;;5013391;28;20985;-74
2023/03/21 05:38:18;;;;;;;8.00;5.13;;;6.60;99.90;;;;;;5013515;28;20568;-75
2023/03/21 05:40:47;;;;;;;17.23;6.03;;;6.60;99.90;;;;;;5012706;28;20459;-74
2023/03/21 05:43:14;;;;;;;6.20;5.40;;;6.60;99.90;;;;;;5012845;28;20491;-75
2023/03/21 05:45:40;;;;;;;11.10;5.70;;;6.60;99.90;;;;;;5012994;28;20486;-74
2023/03/21 05:48:07;;;;;;;13.60;5.90;;;6.60;99.90;;;;;;5012809;28;20452;-74
2023/03/21 05:50:34;;;;;;;8.83;5.90;;;6.60;99.90;;;;;;5013174;28;20469;-74
2023/03/21 05:53:00;;;;;;;11.13;5.63;;;6.60;99.90;;;;;;5014554;28;20452;-74
2023/03/21 05:55:28;;;;;;;12.40;5.90;;;6.60;99.90;;;;;;5013176;28;20891;-76
2023/03/21 05:57:55;;;;;;;11.90;6.40;;;6.60;99.90;;;;;;5013146;28;20514;-76
2023/03/21 06:00:22;;;;;;;10.30;6.30;;;6.60;99.90;;;;;;5012523;28;20448;-75
2023/03/21 06:02:48;;;;;;;11.60;6.57;;;6.60;99.90;;;;;;5011008;28;20518;-75
2023/03/21 06:05:15;;;;;;;17.60;7.13;;;6.80;99.90;;;;;;5012035;28;20526;-74
2023/03/21 06:07:42;;;;;;;10.00;6.50;;;7.00;99.90;;;;;;5012483;28;20942;-75
2023/03/21 06:10:10;;;;;;;14.17;6.23;;;7.20;99.90;;;;;;5012835;28;20456;-76
2023/03/21 06:12:38;;;;;;;18.90;6.30;;;7.60;99.90;;;;;;5012071;28;20458;-75
2023/03/21 06:15:05;;;;;;;8.83;6.50;;;8.00;99.90;;;;;;5011892;28;21063;-76
2023/03/21 06:17:32;;;;;;;8.53;6.37;;;8.30;99.90;;;;;;5010845;28;21012;-76
2023/03/21 06:19:59;;;;;;;14.00;6.53;;;8.60;99.90;;;;;;5014093;28;20512;-76
2023/03/21 06:22:26;;;;;;;15.20;6.87;;;8.90;99.90;;;;;;5001162;28;20545;-76
2023/03/21 06:24:53;;;;;;;15.50;6.43;;;9.20;99.90;;;;;;5011076;28;20470;-76
2023/03/21 06:27:19;;;;;;;16.27;6.73;;;9.20;99.90;;;;;;5011026;28;20457;-76
2023/03/21 06:29:47;;;;;;;14.93;5.93;;;9.20;99.90;;;;;;5012358;28;20513;-76
2023/03/21 06:32:15;;;;;;;11.10;6.53;;;9.20;99.90;;;;;;5012266;28;20462;-76
2023/03/21 06:34:42;;;;;;;11.20;6.63;;;9.30;99.90;;;;;;5012172;28;20943;-76
2023/03/21 06:37:09;;;;;;;13.37;6.20;;;9.30;99.90;;;;;;5011553;28;20521;-70
2023/03/21 06:39:35;;;;;;;11.50;7.63;;;9.30;99.90;;;;;;5012242;28;20800;-69
2023/03/21 06:42:02;;;;;;;10.80;6.83;;;9.50;99.90;;;;;;5011587;28;20450;-69
2023/03/21 06:44:29;;;;;;;18.07;6.10;;;9.90;99.90;;;;;;5012221;28;20552;-69
2023/03/21 06:46:57;;;;;;;9.97;5.10;;;10.10;99.90;;;;;;5012222;28;20456;-69
2023/03/21 06:49:24;;;;;;;15.67;7.03;;;10.20;99.90;;;;;;5012103;28;20451;-69
2023/03/21 06:51:51;;;;;;;11.50;6.20;;;10.20;99.90;;;;;;5012318;28;20458;-69
2023/03/21 06:54:18;;;;;;;7.93;5.70;;;10.10;99.90;;;;;;5012911;28;20524;-69
2023/03/21 06:56:44;;;;;;;10.38;5.35;;;9.80;99.90;;;;;;5010921;28;20442;-76
2023/03/21 06:59:11;;;;;;;10.20;6.50;;;9.50;99.90;;;;;;5011699;28;20207;-76
2023/03/21 07:01:38;;;;;;;10.17;5.80;;;9.20;99.90;;;;;;5009464;28;20463;-76
2023/03/21 07:04:06;;;;;;;15.00;5.20;;;9.00;99.90;;;;;;5008910;28;20546;-76
2023/03/21 07:06:33;;;;;;;14.17;6.13;;;8.80;99.90;;;;;;5011424;28;20463;-76
2023/03/21 07:09:01;;;;;;;12.20;6.53;;;8.60;99.90;;;;;;5011484;28;20487;-76
2023/03/21 07:11:28;;;;;;;11.77;6.37;;;8.60;99.90;;;;;;5011871;28;20463;-76
2023/03/21 07:13:55;;;;;;;10.00;6.97;;;8.60;99.90;;;;;;5011201;28;20468;-76
2023/03/21 07:16:21;;;;;;;13.57;6.40;;;8.60;99.90;;;;;;5011682;28;20450;-76
2023/03/21 07:18:48;;;;;;;10.03;7.47;;;8.80;99.90;;;;;;5011742;28;20459;-76
2023/03/21 07:21:17;;;;;;;14.47;8.07;;;9.10;99.90;;;;;;5015509;28;20505;-75
2023/03/21 07:23:44;;;;;;;15.57;7.33;;;9.50;99.90;;;;;;5011285;28;20912;-76
2023/03/21 07:26:11;;;;;;;14.87;8.03;;;9.70;99.90;;;;;;5011670;28;20486;-75
2023/03/21 07:28:37;;;;;;;16.93;8.00;;;9.70;99.90;;;;;;5010866;28;20513;-76
2023/03/21 07:31:07;;;;;;;13.40;7.63;;;9.70;99.90;;;;;;5011379;28;20462;-76
2023/03/21 07:33:33;;;;;;;10.60;6.10;;;9.70;99.90;;;;;;5011116;28;20459;-76
2023/03/21 07:36:01;;;;;;;16.80;7.70;;;9.70;99.90;;;;;;5011457;28;20495;-76
2023/03/21 07:38:30;;;;;;;17.37;7.77;;;9.60;99.90;;;;;;5011676;28;20462;-75
2023/03/21 07:40:59;;;;;;;15.40;7.87;;;9.40;99.90;;;;;;5011585;28;20455;-76
2023/03/21 07:43:25;;;;;;;17.37;8.17;;;9.40;99.90;;;;;;5010546;28;21010;-76
2023/03/21 07:45:57;;;;;;;17.27;7.87;;;9.30;99.90;;;;;;5011361;28;20483;-76
2023/03/21 07:48:23;;;;;;;18.67;7.87;;;9.30;99.90;;;;;;5009932;28;20520;-74
2023/03/21 07:50:50;;;;;;;13.40;7.63;;;9.30;99.90;;;;;;5011262;28;20461;-75
2023/03/21 07:53:17;;;;;;;16.17;8.50;;;9.30;99.90;;;;;;5012805;28;20454;-76
2023/03/21 07:55:49;;;;;;;14.87;7.90;;;9.40;99.90;;;;;;5011081;28;20482;-75
2023/03/21 07:58:16;;;;;;;18.67;9.80;;;9.40;99.90;;;;;;5011270;28;20583;-76
2023/03/21 08:00:42;;;;;;;14.90;8.90;;;9.50;99.90;;;;;;5010608;28;20805;-76
2023/03/21 08:03:10;;;;;;;16.27;10.00;;;9.50;99.90;;;;;;5005477;28;21092;-77
2023/03/21 08:05:37;;;;;;;18.77;10.17;;;9.60;99.90;;;;;;5010930;28;20490;-78
2023/03/21 08:08:05;;;;;;;15.27;9.80;;;9.70;99.90;;;;;;5011133;28;20524;-76
2023/03/21 08:10:32;;;;;;;18.60;10.23;;;9.70;99.90;;;;;;5003220;28;20832;-76
2023/03/21 08:13:00;;;;;;;14.63;10.17;;;9.80;99.90;;;;;;5009161;28;20900;-77
2023/03/21 08:15:27;;;;;;;18.00;10.27;;;9.90;99.90;;;;;;5011067;28;20477;-76
2023/03/21 08:17:54;;;;;;;17.60;9.40;;;10.00;99.90;;;;;;5011453;28;20451;-77
2023/03/21 08:20:22;;;;;;;16.20;9.80;;;10.10;99.90;;;;;;5015795;28;20456;-76
2023/03/21 08:22:50;;;;;;;18.23;10.93;;;10.10;99.90;;;;;;5010323;28;20450;-77
2023/03/21 08:25:19;;;;;;;23.83;12.03;;;10.20;99.90;;;;;;5010658;28;20471;-77
2023/03/21 08:27:47;;;;;;;16.53;10.13;;;10.20;99.90;;;;;;5011067;28;20468;-77
2023/03/21 08:30:17;;;;;;;14.83;8.90;;;10.30;99.90;;;;;;5010872;28;20479;-77
2023/03/21 08:32:44;;;;;;;18.50;9.40;;;10.30;99.90;;;;;;5011123;28;20489;-77
2023/03/21 08:35:14;;;;;;;20.50;9.53;;;10.30;99.90;;;;;;5010718;28;20520;-78
2023/03/21 08:37:41;;;;;;;18.17;9.00;;;10.30;99.90;;;;;;5011084;28;20465;-77
2023/03/21 08:40:12;;;;;;;24.00;9.30;;;10.30;99.90;;;;;;5011287;28;20531;-77
2023/03/21 08:42:39;;;;;;;19.43;10.50;;;10.30;99.90;;;;;;5014069;28;20542;-77
2023/03/21 08:45:08;;;;;;;23.60;10.50;;;10.30;99.90;;;;;;5014213;28;20495;-77
2023/03/21 08:47:36;;;;;;;19.37;10.50;;;10.30;99.90;;;;;;5014437;28;21007;-77
2023/03/21 08:50:05;;;;;;;16.23;9.80;;;10.40;99.90;;;;;;5014467;28;20458;-77
2023/03/21 08:52:32;;;;;;;22.27;10.23;;;10.40;99.90;;;;;;5013384;28;20454;-77
2023/03/21 08:55:00;;;;;;;18.47;10.90;;;10.40;99.90;;;;;;5014225;28;20478;-78
2023/03/21 08:57:27;;;;;;;18.90;11.20;;;10.50;99.90;;;;;;5013865;28;20475;-78
2023/03/21 08:59:54;;;;;;;16.40;10.43;;;10.60;99.90;;;;;;5014305;28;20862;-78
2023/03/21 09:02:21;;;;;;;18.17;9.70;;;10.70;99.90;;;;;;5007433;28;20450;-78
2023/03/21 09:04:51;;;;;;;17.47;9.33;;;10.70;99.90;;;;;;5013753;28;20493;-79
2023/03/21 09:07:18;;;;;;;19.17;9.37;;;10.90;99.90;;;;;;5014017;28;20469;-78
2023/03/21 09:09:46;;;;;;;16.80;10.23;;;10.90;99.90;;;;;;5013732;28;20460;-78
2023/03/21 09:12:12;;;;;;;16.70;9.80;;;11.00;99.90;;;;;;5012869;28;20473;-80
2023/03/21 09:14:40;;;;;;;21.50;9.90;;;11.10;99.90;;;;;;5012745;28;20970;-78
2023/03/21 09:17:06;;;;;;;16.77;10.07;;;11.10;99.90;;;;;;5013897;28;20453;-77
2023/03/21 09:19:33;;;;;;;24.73;11.33;;;11.20;99.90;;;;;;5014817;28;20443;-77
2023/03/21 09:22:02;;;;;;;14.83;9.23;;;11.10;99.90;;;;;;5017920;28;20572;-77
2023/03/21 09:24:29;;;;;;;17.90;11.50;;;11.10;99.90;;;;;;5013032;28;20500;-78
2023/03/21 09:26:57;;;;;;;20.20;10.10;;;11.10;99.90;;;;;;5013447;28;20879;-76
2023/03/21 09:29:24;;;;;;;17.53;9.10;;;11.10;99.90;;;;;;5012844;28;20474;-77
2023/03/21 09:31:52;;;;;;;19.03;8.03;;;11.20;99.90;;;;;;5012978;28;20960;-77
2023/03/21 09:34:19;;;;;;;15.17;7.93;;;11.30;99.90;;;;;;5013395;28;20929;-77
2023/03/21 09:36:47;;;;;;;16.17;7.43;;;11.30;99.90;;;;;;5013081;28;20457;-77
2023/03/21 09:39:16;;;;;;;13.17;7.70;;;11.40;99.90;;;;;;5013874;28;20547;-77
2023/03/21 09:42:07;;;;;;;15.87;9.17;;;11.50;99.90;;;;;;5013249;28;20505;-76
2023/03/21 09:44:45;;;;;;;18.87;9.57;;;11.50;99.90;;;;;;5013171;28;20926;-77
2023/03/21 09:47:20;;;;;;;17.83;9.33;;;11.50;99.90;;;;;;5010084;28;20497;-77
2023/03/21 09:49:50;;;;;;;28.63;9.47;;;11.50;99.90;;;;;;5013385;28;20461;-76
2023/03/21 09:52:22;;;;;;;13.10;8.00;;;11.50;99.90;;;;;;5015106;28;20451;-77
2023/03/21 09:54:51;;;;;;;14.33;8.03;;;11.50;99.90;;;;;;5012935;28;20537;-78
2023/03/21 09:57:27;;;;;;;18.47;8.97;;;11.50;99.90;;;;;;5013078;28;20466;-77
2023/03/21 09:59:56;;;;;;;23.70;8.90;;;11.50;99.90;;;;;;5013060;28;20876;-77
2023/03/21 10:02:37;;;;;;;14.00;7.47;;;11.50;99.90;;;;;;5015571;28;20464;-78
2023/03/21 10:05:13;;;;;;;17.30;9.57;;;11.50;99.90;;;;;;5012801;28;20579;-77
2023/03/21 10:07:46;;;;;;;16.87;8.43;;;11.50;99.90;;;;;;5006021;28;20452;-76
2023/03/21 10:10:19;;;;;;;16.83;7.50;;;11.50;99.90;;;;;;5012864;28;20477;-75
2023/03/21 10:12:47;;;;;;;16.17;8.03;;;11.50;99.90;;;;;;5012339;28;20450;-77
2023/03/21 10:15:20;;;;;;;20.40;7.07;;;11.60;99.90;;;;;;5011767;28;20517;-76
2023/03/21 10:17:54;;;;;;;24.03;7.87;;;11.70;99.90;;;;;;5012804;28;20458;-76
2023/03/21 10:20:24;;;;;;;21.23;6.87;;;11.80;99.90;;;;;;5012686;28;20481;-76
2023/03/21 10:22:53;;;;;;;13.80;7.07;;;11.80;99.90;;;;;;5012659;28;20454;-76
2023/03/21 10:25:26;;;;;;;21.70;7.10;;;11.90;99.90;;;;;;5011715;28;20491;-76
2023/03/21 10:27:53;;;;;;;12.87;6.27;;;11.90;99.90;;;;;;5012107;28;20805;-76
2023/03/21 10:30:28;;;;;;;16.33;6.57;;;12.00;99.90;;;;;;5012382;28;20863;-76
2023/03/21 10:32:57;;;;;;;18.67;7.63;;;11.90;99.90;;;;;;5012043;28;20519;-77
2023/03/21 10:35:24;;;;;;;20.13;6.07;;;11.90;99.90;;;;;;5012193;28;20470;-76
2023/03/21 10:37:51;;;;;;;17.00;7.07;;;11.90;99.90;;;;;;5011892;28;20515;-76
2023/03/21 10:40:18;;;;;;;17.37;6.63;;;11.80;99.90;;;;;;5011650;28;20525;-76
2023/03/21 10:42:46;;;;;;;12.97;6.67;;;11.80;99.90;;;;;;5012447;28;20502;-76
2023/03/21 10:45:18;;;;;;;17.23;6.83;;;11.70;99.90;;;;;;5011975;28;21076;-76
2023/03/21 10:47:48;;;;;;;18.93;6.00;;;11.60;99.90;;;;;;5012093;28;20969;-76
2023/03/21 10:50:19;;;;;;;14.70;7.10;;;11.70;99.90;;;;;;5011662;28;20458;-76
2023/03/21 10:52:50;;;;;;;15.70;7.00;;;11.70;99.90;;;;;;5015489;28;20515;-76
2023/03/21 10:55:25;;;;;;;21.00;7.03;;;11.70;99.90;;;;;;5011704;28;21028;-78
2023/03/21 10:57:59;;;;;;;16.97;7.00;;;11.70;99.90;;;;;;5012145;28;20464;-77
2023/03/21 11:00:29;;;;;;;15.17;6.77;;;11.70;99.90;;;;;;5011747;28;20571;-77
2023/03/21 11:02:57;;;;;;;14.03;6.57;;;11.80;99.90;;;;;;5011878;28;20955;-77
2023/03/21 11:05:27;;;;;;;21.23;7.57;;;11.80;99.90;;;;;;5011666;28;20928;-77
2023/03/21 11:08:02;;;;;;;18.20;7.10;;;11.80;99.90;;;;;;5011785;28;21032;-77
2023/03/21 11:10:31;;;;;;;26.77;8.30;;;11.80;99.90;;;;;;5011746;28;20443;-77
2023/03/21 11:13:05;;;;;;;13.67;6.90;;;11.80;99.90;;;;;;5011336;28;20506;-77
2023/03/21 11:15:37;;;;;;;17.83;6.37;;;11.80;99.90;;;;;;5011758;28;20867;-77
2023/03/21 11:18:14;;;;;;;17.53;6.57;;;11.80;99.90;;;;;;5011824;28;21008;-77
2023/03/21 11:20:44;;;;;;;10.97;7.00;;;11.90;99.90;;;;;;5017936;28;21001;-75
2023/03/21 11:23:13;;;;;;;14.30;6.17;;;11.90;99.90;;;;;;5011472;28;20509;-76
2023/03/21 11:25:42;;;;;;;14.47;6.73;;;11.90;99.90;;;;;;5003750;28;20490;-75
2023/03/21 11:28:16;;;;;;;17.80;6.60;;;11.90;99.90;;;;;;5011093;28;20463;-75
2023/03/21 11:30:54;;;;;;;21.70;7.10;;;11.90;99.90;;;;;;5011657;28;20462;-76
2023/03/21 11:33:23;;;;;;;15.93;6.73;;;11.90;99.90;;;;;;5011707;28;20459;-77
2023/03/21 11:36:01;;;;;;;20.03;6.67;;;11.90;99.90;;;;;;5011347;28;20525;-75
2023/03/21 11:38:32;;;;;;;13.07;6.87;;;11.90;99.90;;;;;;5011501;28;20465;-76
2023/03/21 11:41:00;;;;;;;14.80;6.83;;;11.80;99.90;;;;;;5011609;28;20465;-76
2023/03/21 11:43:31;;;;;;;14.10;6.50;;;11.90;99.90;;;;;;5011081;28;20501;-75
2023/03/21 11:46:00;;;;;;;15.10;6.50;;;11.80;99.90;;;;;;5011026;28;20573;-76
2023/03/21 11:48:28;;;;;;;13.93;6.63;;;11.90;99.90;;;;;;5011112;28;20507;-75
2023/03/21 11:51:02;;;;;;;16.97;6.80;;;11.80;99.90;;;;;;5011595;28;20458;-75
2023/03/21 11:53:38;;;;;;;19.07;6.97;;;11.80;99.90;;;;;;5014451;28;20456;-76
2023/03/21 11:56:27;;;;;;;14.20;7.57;;;11.70;99.90;;;;;;5011191;28;20472;-75
2023/03/21 11:59:12;;;;;;;11.63;6.33;;;11.60;99.90;;;;;;5008306;28;20468;-76
2023/03/21 12:01:49;;;;;;;17.33;6.40;;;11.50;99.90;;;;;;5013601;28;20466;-75
2023/03/21 12:04:25;;;;;;;21.67;6.27;;;11.40;99.90;;;;;;5010764;28;20534;-76
2023/03/21 12:06:56;;;;;;;15.60;6.50;;;11.20;99.90;;;;;;5004621;28;20518;-75
2023/03/21 12:09:34;;;;;;;15.37;7.70;;;11.10;99.90;;;;;;5010867;28;20501;-76
2023/03/21 12:12:11;;;;;;;13.80;6.93;;;11.10;99.90;;;;;;5011265;28;20468;-75
2023/03/21 12:14:51;;;;;;;10.50;7.00;;;11.10;99.90;;;;;;5012096;28;20902;-75
2023/03/21 12:17:30;;;;;;;18.60;7.23;;;11.10;99.90;;;;;;5011942;28;20528;-76
2023/03/21 12:20:14;;;;;;;17.00;7.30;;;11.00;99.90;;;;;;5019106;28;20485;-76
2023/03/21 12:22:52;;;;;;;13.00;7.37;;;10.90;99.90;;;;;;5014916;28;20969;-76
2023/03/21 12:25:26;;;;;;;12.50;7.00;;;10.90;99.90;;;;;;5014263;28;20494;-76
2023/03/21 12:28:02;;;;;;;14.70;6.90;;;10.80;99.90;;;;;;5014927;28;20472;-76
2023/03/21 12:30:41;;;;;;;13.40;7.17;;;10.80;99.90;;;;;;5014179;28;20966;-76
2023/03/21 12:33:21;;;;;;;15.03;6.70;;;10.70;99.90;;;;;;5015169;28;20466;-76
2023/03/21 12:36:01;;;;;;;14.63;6.47;;;10.70;99.90;;;;;;5006815;28;20470;-77
2023/03/21 12:38:35;;;;;;;13.50;6.73;;;10.70;99.90;;;;;;5014782;28;20501;-76
2023/03/21 12:41:17;;;;;;;9.57;7.03;;;10.70;99.90;;;;;;5014414;28;20511;-76
2023/03/21 12:43:48;;;;;;;19.53;7.77;;;10.70;99.90;;;;;;5006072;28;20488;-76
2023/03/21 12:46:22;;;;;;;12.23;6.23;;;10.70;99.90;;;;;;5014056;28;20491;-76
2023/03/21 12:48:51;;;;;;;12.50;5.73;;;10.70;99.90;;;;;;5012548;28;20455;-76
2023/03/21 12:51:23;;;;;;;9.20;4.27;;;10.60;99.90;;;;;;5014309;28;20446;-78
2023/03/21 12:53:55;;;;;;;13.20;5.73;;;10.60;99.90;;;;;;5014617;28;20457;-75
2023/03/21 12:56:27;;;;;;;15.63;7.43;;;10.50;99.90;;;;;;5012554;28;20546;-74
2023/03/21 12:58:57;;;;;;;9.43;6.83;;;10.60;99.90;;;;;;5013266;28;20863;-74
2023/03/21 13:01:26;;;;;;;14.37;6.83;;;10.60;99.90;;;;;;5015662;28;21003;-74